EDT,Max TemperatureF,Mean TemperatureF,Min TemperatureF,Max Dew PointF,MeanDew PointF,Min DewpointF,Max Humidity, Mean Humidity, Min Humidity, Max Sea Level PressureIn, Mean Sea Level PressureIn, Min Sea Level PressureIn, Max VisibilityMiles, Mean VisibilityMiles, Min VisibilityMiles, Max Wind SpeedMPH, Mean Wind SpeedMPH, Max Gust SpeedMPH,PrecipitationIn, CloudCover, Events, WindDirDegrees
2012-9-1,82,70,59,64,60,54,94,73,37,30.11,30.00,29.87,10,9,0,10,1,,0.00,2,,133
2012-9-2,78,68,57,63,56,52,94,69,41,30.16,30.09,30.04,10,10,5,12,2,17,0.02,5,,141
2012-9-3,78,64,51,59,54,50,94,74,42,30.24,30.17,30.12,10,8,0,12,2,16,0.00,4,,196
2012-9-4,69,66,62,66,62,57,94,87,73,30.13,30.03,29.84,10,9,2,9,2,,0.34,8,,333
2012-9-5,78,71,64,72,65,63,94,79,57,29.86,29.78,29.68,10,9,3,12,3,20,0.21,7,,306
2012-9-6,78,69,60,64,63,61,100,84,61,29.93,29.87,29.84,10,8,0,9,2,,0.00,4,,208
2012-9-7,82,72,62,66,62,52,100,78,35,29.94,29.90,29.86,10,6,0,7,1,,0.00,4,Thunderstorm,213
2012-9-8,80,70,60,72,65,57,89,79,54,29.88,29.73,29.57,10,10,6,21,7,32,0.21,6,,183
2012-9-9,73,63,53,57,53,48,94,74,41,29.88,29.82,29.73,10,10,5,10,3,,0.01,2,,334
2012-9-10,66,56,46,52,45,37,100,70,35,30.09,29.97,29.88,10,9,0,17,4,28,0.00,4,,342
2012-9-11,71,55,39,52,42,37,93,69,33,30.28,30.19,30.09,10,9,1,10,2,17,0.00,1,,249
2012-9-12,78,60,42,57,47,41,100,74,32,30.37,30.32,30.28,10,6,0,8,1,,0.00,2,,203
2012-9-13,80,64,48,63,53,46,100,78,39,30.38,30.31,30.25,10,5,0,10,1,,0.00,2,,222
2012-9-14,80,66,51,63,56,52,100,80,42,30.27,30.18,30.06,10,6,0,12,1,16,0.00,4,,209
2012-9-15,69,58,46,57,49,45,94,69,40,30.08,30.05,30.01,10,10,5,14,4,21,0.04,3,,305
2012-9-16,68,55,42,46,42,32,100,72,26,30.10,30.05,30.00,10,8,0,10,2,17,0.00,2,,323
2012-9-17,75,56,37,55,46,36,100,77,44,30.12,30.06,30.00,10,8,0,10,1,,0.00,1,,199
2012-9-18,71,60,48,66,58,46,94,88,78,30.04,29.84,29.61,10,8,1,26,5,38,1.85,6,,174
2012-9-19,68,56,42,64,46,36,94,65,32,30.21,29.98,29.66,10,9,0,12,6,20,0.00,3,,309
2012-9-20,64,52,39,48,42,37,100,74,42,30.28,30.21,30.13,10,7,0,9,1,17,0.00,4,,181
2012-9-21,71,58,44,52,47,43,93,74,43,30.16,30.11,30.05,10,10,3,12,1,,0.00,1,,189
2012-9-22,73,60,46,61,52,45,94,80,57,30.04,29.91,29.80,10,9,1,15,3,22,0.45,6,,196
2012-9-23,64,53,42,59,46,37,94,71,37,30.10,29.97,29.80,10,9,2,13,3,18,0.04,3,,304
2012-9-24,62,50,39,45,39,34,100,76,34,30.15,30.10,30.05,10,6,0,13,1,17,0.00,3,,232
2012-9-25,69,51,33,48,40,34,100,76,35,30.15,30.11,30.08,10,8,0,17,2,22,0.00,3,,199
2012-9-26,68,60,51,59,56,48,94,83,68,30.10,30.04,29.98,10,10,7,12,3,,0.01,7,,198
2012-9-27,64,53,42,59,46,36,100,69,34,30.25,30.15,30.00,10,8,0,14,4,18,0.00,2,,348
2012-9-28,53,47,41,50,46,37,94,90,82,30.26,30.16,30.00,10,9,1,8,2,,1.16,7,,4
2012-9-29,57,54,51,54,50,48,94,85,77,29.99,29.93,29.88,10,10,3,8,4,,0.00,8,,360
2012-9-30,60,56,48,54,51,46,94,88,63,29.91,29.80,29.70,10,9,0,7,1,,0.02,6,,254